Time;durP1;ratioP1;P1;durP2;ratioP2;P2;SDS_P1;SDS_P2;PMS_P1;PMS_P2;Temp;Humidity;BMP_temperature;BMP_pressure;BME280_temperature;BME280_humidity;BME280_pressure;Samples;Min_cycle;Max_cycle;Signal;HPM_P1;HPM_P2
2023/08/14 00:01:19;;;;;;;11.40;6.50;;;;;;;20.33;59.48;101054.34;105336;1254;63696;-54
2023/08/14 00:03:46;;;;;;;8.40;6.30;;;;;;;20.33;59.66;101055.04;105431;1258;60572;-54
2023/08/14 00:06:14;;;;;;;8.00;6.00;;;;;;;20.32;59.79;101057.84;105251;1259;60485;-55
2023/08/14 00:08:42;;;;;;;7.50;6.20;;;;;;;20.30;59.89;101061.62;105320;1259;65103;-56
2023/08/14 00:11:09;;;;;;;8.90;6.10;;;;;;;20.25;60.02;101061.48;105614;1256;61347;-56
2023/08/14 00:13:53;;;;;;;7.60;5.60;;;;;;;20.19;60.27;101064.02;105338;1258;62678;-55
2023/08/14 00:16:21;;;;;;;12.50;7.10;;;;;;;20.13;60.31;101061.70;105439;1254;60527;-58
2023/08/14 00:18:49;;;;;;;9.10;6.10;;;;;;;20.10;60.40;101059.60;105461;1255;60463;-56
2023/08/14 00:21:16;;;;;;;9.50;6.00;;;;;;;20.09;60.26;101061.44;105342;1254;65046;-55
2023/08/14 00:23:44;;;;;;;8.70;5.60;;;;;;;20.07;60.36;101062.91;105498;1255;61501;-55
2023/08/14 00:26:15;;;;;;;10.00;6.20;;;;;;;20.03;60.18;101067.38;105255;1259;73797;-56
2023/08/14 00:28:42;;;;;;;9.60;6.30;;;;;;;20.00;60.16;101069.75;105290;1254;60064;-56
2023/08/14 00:31:09;;;;;;;8.80;6.60;;;;;;;19.96;60.23;101068.91;105294;1259;60520;-56
2023/08/14 00:33:37;;;;;;;9.50;5.90;;;;;;;19.93;60.29;101070.32;105246;1254;63639;-55
2023/08/14 00:36:05;;;;;;;9.00;5.80;;;;;;;19.92;60.23;101069.19;105333;1254;61420;-54
2023/08/14 00:38:33;;;;;;;10.30;6.60;;;;;;;19.94;60.29;101071.21;105551;1254;71237;-55
2023/08/14 00:41:02;;;;;;;8.50;6.70;;;;;;;19.93;60.38;101071.32;105444;1254;60658;-56
2023/08/14 00:43:30;;;;;;;7.80;6.00;;;;;;;19.89;60.42;101069.70;105319;1252;60562;-56
2023/08/14 00:45:57;;;;;;;10.00;6.30;;;;;;;19.83;60.67;101068.30;105281;1254;63644;-56
2023/08/14 00:48:25;;;;;;;8.40;6.40;;;;;;;19.79;60.63;101069.13;105279;1254;62006;-56
2023/08/14 00:50:53;;;;;;;10.00;6.60;;;;;;;19.77;60.62;101065.44;105410;1254;63664;-60
2023/08/14 00:53:24;;;;;;;8.60;6.60;;;;;;;19.78;60.49;101065.88;105431;1257;60621;-60
2023/08/14 00:55:51;;;;;;;8.50;6.40;;;;;;;19.78;60.30;101062.93;105406;1254;60714;-59
2023/08/14 00:58:19;;;;;;;13.10;6.90;;;;;;;19.75;60.35;101063.33;105340;1254;63851;-59
2023/08/14 01:00:46;;;;;;;9.00;6.70;;;;;;;19.68;60.48;101060.14;105335;1254;60834;-59
2023/08/14 01:03:14;;;;;;;9.50;6.60;;;;;;;19.62;60.51;101059.00;105432;1253;66172;-58
2023/08/14 01:05:42;;;;;;;9.60;6.50;;;;;;;19.57;60.62;101060.83;105342;1254;61122;-57
2023/08/14 01:08:09;;;;;;;9.30;7.00;;;;;;;19.49;60.74;101060.36;105313;1254;60660;-57
2023/08/14 01:10:44;;;;;;;8.50;6.30;;;;;;;19.44;60.68;101059.27;105402;1257;65137;-57
2023/08/14 01:13:32;;;;;;;13.30;6.70;;;;;;;19.45;60.43;101060.48;105459;1254;61524;-62
2023/08/14 01:16:03;;;;;;;9.80;7.00;;;;;;;19.44;60.27;101060.73;105303;1254;63745;-61
2023/08/14 01:18:31;;;;;;;10.00;7.30;;;;;;;19.43;60.24;101063.21;105462;1256;60555;-63
2023/08/14 01:21:11;;;;;;;9.50;6.70;;;;;;;19.41;60.09;101064.95;105451;1254;60552;-62
2023/08/14 01:23:49;;;;;;;11.90;6.90;;;;;;;19.39;60.02;101068.23;105361;1257;64679;-62
2023/08/14 01:26:16;;;;;;;11.60;7.70;;;;;;;19.37;59.95;101068.11;105551;1254;61383;-61
2023/08/14 01:28:45;;;;;;;11.30;7.20;;;;;;;19.34;60.28;101067.83;105270;1254;63770;-60
2023/08/14 01:31:12;;;;;;;8.30;7.10;;;;;;;19.37;60.36;101069.90;105312;1257;60585;-60
2023/08/14 01:33:40;;;;;;;9.50;7.00;;;;;;;19.41;60.39;101070.86;105560;1254;60450;-62
2023/08/14 01:36:10;;;;;;;11.00;7.40;;;;;;;19.44;60.33;101068.52;105437;1254;63869;-61
2023/08/14 01:39:07;;;;;;;9.50;6.60;;;;;;;19.45;60.22;101067.52;105456;1254;61407;-59
2023/08/14 01:42:06;;;;;;;10.40;7.30;;;;;;;19.45;60.26;101072.48;105424;1257;65618;-60
2023/08/14 01:44:33;;;;;;;9.90;6.50;;;;;;;19.43;60.34;101074.86;105250;1254;60565;-63
2023/08/14 01:47:01;;;;;;;11.60;7.30;;;;;;;19.41;60.47;101074.21;105501;1252;60507;-59
2023/08/14 01:49:29;;;;;;;10.00;6.90;;;;;;;19.38;60.64;101078.70;105345;1258;64891;-60
2023/08/14 01:51:56;;;;;;;9.60;6.70;;;;;;;19.34;60.65;101078.20;105291;1254;61802;-61
2023/08/14 01:54:24;;;;;;;8.20;6.80;;;;;;;19.32;60.71;101078.96;105273;1254;63710;-60
2023/08/14 01:56:51;;;;;;;10.70;7.50;;;;;;;19.29;60.60;101081.70;105290;1254;60518;-60
2023/08/14 01:59:19;;;;;;;8.90;6.50;;;;;;;19.26;60.65;101081.02;105291;1259;60534;-59
2023/08/14 02:01:47;;;;;;;9.00;6.60;;;;;;;19.22;60.60;101082.08;105297;1252;63661;-60
2023/08/14 02:04:15;;;;;;;10.60;7.80;;;;;;;19.20;60.60;101085.23;105462;1254;69272;-58
2023/08/14 02:06:43;;;;;;;8.70;6.50;;;;;;;19.17;60.76;101083.55;105343;1256;64208;-58
2023/08/14 02:09:11;;;;;;;8.60;6.20;;;;;;;19.16;60.97;101087.42;105380;1254;60562;-59
2023/08/14 02:11:38;;;;;;;9.90;6.60;;;;;;;19.17;60.95;101089.36;105404;1254;60498;-59
2023/08/14 02:14:06;;;;;;;7.50;5.90;;;;;;;19.20;61.08;101094.58;105419;1253;64987;-58
2023/08/14 02:16:33;;;;;;;9.40;7.30;;;;;;;19.23;61.32;101093.61;105395;1252;60797;-58
2023/08/14 02:19:01;;;;;;;9.00;7.10;;;;;;;19.22;61.41;101093.48;105434;1253;63747;-60
2023/08/14 02:21:29;;;;;;;9.10;6.60;;;;;;;19.20;61.53;101092.17;105433;1254;60597;-59
2023/08/14 02:23:56;;;;;;;8.00;6.50;;;;;;;19.17;61.76;101093.14;105454;1259;60516;-59
2023/08/14 02:26:24;;;;;;;9.60;7.40;;;;;;;19.15;61.79;101096.39;105258;1254;64846;-60
2023/08/14 02:28:53;;;;;;;9.80;7.10;;;;;;;19.11;61.78;101096.95;105420;1254;61389;-60
2023/08/14 02:31:21;;;;;;;17.10;7.30;;;;;;;19.12;61.78;101098.59;105499;1257;63694;-58
2023/08/14 02:33:49;;;;;;;9.50;6.90;;;;;;;19.14;61.62;101101.13;105556;1257;60562;-58
2023/08/14 02:36:16;;;;;;;10.40;7.30;;;;;;;19.11;61.46;101102.85;105507;1254;60501;-59
2023/08/14 02:38:44;;;;;;;9.00;6.90;;;;;;;19.06;61.48;101104.74;105438;1253;63661;-59
2023/08/14 02:41:12;;;;;;;11.60;7.20;;;;;;;19.02;61.58;101105.15;105390;1259;61602;-57
2023/08/14 02:43:40;;;;;;;10.30;6.90;;;;;;;19.00;61.60;101107.04;105387;1254;63714;-61
2023/08/14 02:46:08;;;;;;;9.60;7.40;;;;;;;18.98;61.64;101111.70;105097;1254;268002;-59
2023/08/14 02:51:23;;;;;;;8.70;5.80;;;;;;;18.75;62.34;101112.64;102375;1291;601192;-61
2023/08/14 02:53:50;;;;;;;9.10;6.40;;;;;;;18.95;61.50;101113.22;104554;1271;59326;-60
2023/08/14 02:56:18;;;;;;;9.40;7.20;;;;;;;18.96;61.15;101120.25;104421;1272;59344;-60
2023/08/14 02:58:45;;;;;;;8.30;6.60;;;;;;;18.92;60.88;101122.94;104503;1271;63433;-56
2023/08/14 03:01:13;;;;;;;10.00;7.60;;;;;;;18.89;60.79;101127.39;104575;1266;61571;-53
2023/08/14 03:03:41;;;;;;;10.20;8.20;;;;;;;18.87;60.68;101128.79;104188;1271;63663;-59
2023/08/14 03:06:08;;;;;;;9.70;7.50;;;;;;;18.84;60.63;101129.09;104153;1269;204694;-58
2023/08/14 03:08:36;;;;;;;8.70;6.60;;;;;;;18.79;60.80;101131.91;104618;1270;59386;-57
2023/08/14 03:11:03;;;;;;;11.00;7.10;;;;;;;18.77;60.91;101131.56;104415;1263;63240;-60
2023/08/14 03:13:31;;;;;;;8.30;6.60;;;;;;;18.78;60.95;101132.90;104385;1264;61407;-58
2023/08/14 03:15:59;;;;;;;11.70;7.80;;;;;;;18.80;60.94;101133.28;104496;1266;63730;-59
2023/08/14 03:18:26;;;;;;;9.40;7.30;;;;;;;18.81;60.96;101132.96;104525;1265;59753;-65
2023/08/14 03:20:53;;;;;;;10.10;7.30;;;;;;;18.81;60.79;101132.98;104505;1264;59715;-53
2023/08/14 03:23:21;;;;;;;9.60;7.00;;;;;;;18.80;61.07;101134.51;104410;1269;64244;-60
2023/08/14 03:25:49;;;;;;;13.10;8.30;;;;;;;18.78;61.09;101138.58;104659;1268;60181;-59
2023/08/14 03:28:16;;;;;;;9.30;7.50;;;;;;;18.77;61.26;101140.50;104345;1267;62654;-57
2023/08/14 03:30:45;;;;;;;9.40;6.70;;;;;;;18.78;61.13;101140.90;104412;1266;59789;-59
2023/08/14 03:33:13;;;;;;;13.30;7.00;;;;;;;18.81;60.98;101142.35;106660;1269;58003;-59
2023/08/14 03:35:41;;;;;;;11.60;7.40;;;;;;;18.85;60.64;101141.94;105442;1264;64193;-52
2023/08/14 03:38:10;;;;;;;8.00;6.60;;;;;;;18.87;60.39;101143.52;104449;1263;61368;-49
2023/08/14 03:40:37;;;;;;;8.80;6.70;;;;;;;18.87;60.39;101145.69;104373;1268;64734;-53
2023/08/14 03:43:05;;;;;;;10.70;8.00;;;;;;;18.86;60.23;101147.20;105270;1264;59708;-52
2023/08/14 03:45:33;;;;;;;10.60;7.60;;;;;;;18.86;60.01;101144.77;104660;1264;59827;-50
2023/08/14 03:48:01;;;;;;;10.10;6.90;;;;;;;18.84;59.99;101143.89;104464;1270;64305;-51
2023/08/14 03:50:29;;;;;;;10.20;7.10;;;;;;;18.82;60.20;101145.45;104612;1264;61332;-51
2023/08/14 03:52:57;;;;;;;8.90;7.00;;;;;;;18.84;60.15;101146.59;104931;1253;62465;-49
2023/08/14 03:55:24;;;;;;;10.40;7.00;;;;;;;18.86;60.05;101147.55;105242;1255;59755;-50
2023/08/14 03:57:52;;;;;;;10.00;7.20;;;;;;;18.89;59.99;101146.33;105215;1256;59648;-50
2023/08/14 04:00:19;;;;;;;7.90;6.70;;;;;;;18.94;59.89;101148.35;105235;1258;64283;-53
2023/08/14 04:02:47;;;;;;;11.40;7.70;;;;;;;18.98;59.90;101146.54;105148;1260;61711;-50
2023/08/14 04:05:15;;;;;;;10.30;7.60;;;;;;;19.02;60.11;101148.89;105357;1257;63710;-50
2023/08/14 04:07:42;;;;;;;10.00;7.00;;;;;;;19.06;60.28;101150.84;104940;1262;59751;-50
2023/08/14 04:10:10;;;;;;;9.30;7.20;;;;;;;19.11;60.49;101152.30;105178;1258;60450;-51
2023/08/14 04:12:38;;;;;;;12.80;7.50;;;;;;;19.19;60.52;101150.96;105475;1256;62912;-49
2023/08/14 04:15:15;;;;;;;8.60;6.90;;;;;;;19.28;60.37;101146.89;105255;1255;61483;-52
2023/08/14 04:17:43;;;;;;;8.90;6.60;;;;;;;19.39;60.28;101144.89;105102;1258;62495;-50
2023/08/14 04:20:11;;;;;;;8.90;6.60;;;;;;;19.47;60.09;101147.77;105268;1256;59729;-50
2023/08/14 04:22:39;;;;;;;11.00;7.50;;;;;;;19.55;60.02;101152.52;105133;1254;59733;-51
2023/08/14 04:25:07;;;;;;;9.60;6.90;;;;;;;19.60;59.74;101152.83;105218;1257;64777;-52
2023/08/14 04:27:36;;;;;;;9.50;6.40;;;;;;;19.64;59.48;101155.61;105051;1256;61458;-52
2023/08/14 04:30:05;;;;;;;10.50;7.10;;;;;;;19.65;59.16;101156.24;105255;1261;63749;-52
2023/08/14 04:32:33;;;;;;;11.80;7.00;;;;;;;19.68;58.85;101154.15;105144;1260;59959;-52
2023/08/14 04:35:01;;;;;;;9.40;6.70;;;;;;;19.76;58.80;101157.89;104947;1256;59690;-51
2023/08/14 04:37:29;;;;;;;10.80;6.80;;;;;;;19.86;58.51;101159.31;108937;1252;62853;-52
2023/08/14 04:39:56;;;;;;;10.90;7.20;;;;;;;19.98;58.47;101164.44;105804;1256;69288;-52
2023/08/14 04:42:25;;;;;;;9.80;7.30;;;;;;;20.07;58.13;101161.38;105382;1258;64046;-50
2023/08/14 04:44:53;;;;;;;16.00;7.20;;;;;;;20.14;57.81;101160.20;105288;1252;59654;-52
2023/08/14 04:47:21;;;;;;;10.90;7.10;;;;;;;20.24;57.60;101161.88;105226;1258;59692;-53
2023/08/14 04:49:49;;;;;;;9.40;7.10;;;;;;;20.31;57.51;101160.36;105249;1258;66087;-53
2023/08/14 04:52:16;;;;;;;10.10;7.30;;;;;;;20.36;57.17;101159.84;105145;1258;60206;-54
2023/08/14 04:54:45;;;;;;;10.20;7.50;;;;;;;20.42;57.12;101161.01;105253;1254;63719;-52
2023/08/14 04:57:13;;;;;;;8.90;7.10;;;;;;;20.48;57.10;101164.93;105323;1257;59814;-53
2023/08/14 04:59:40;;;;;;;8.50;6.70;;;;;;;20.55;57.15;101167.77;105163;1253;59693;-51
2023/08/14 05:02:09;;;;;;;7.60;6.00;;;;;;;20.64;57.04;101168.20;105058;1253;64213;-50
2023/08/14 05:04:37;;;;;;;7.90;6.40;;;;;;;20.76;57.10;101168.33;105305;1258;61547;-53
2023/08/14 05:07:05;;;;;;;10.30;7.20;;;;;;;20.86;56.80;101165.56;105205;1254;62489;-53
2023/08/14 05:09:33;;;;;;;10.20;7.00;;;;;;;20.96;56.55;101166.59;105194;1253;59747;-52
2023/08/14 05:12:01;;;;;;;11.30;8.30;;;;;;;21.07;56.47;101167.08;105075;1254;59662;-50
2023/08/14 05:14:28;;;;;;;10.30;8.50;;;;;;;21.15;56.17;101168.58;105237;1253;63104;-50
2023/08/14 05:16:56;;;;;;;12.90;9.00;;;;;;;21.24;56.03;101168.47;105039;1258;60084;-50
2023/08/14 05:19:25;;;;;;;8.30;7.30;;;;;;;21.33;56.06;101170.67;105097;1255;63725;-52
2023/08/14 05:21:53;;;;;;;8.80;7.50;;;;;;;21.41;55.49;101170.47;105473;1253;59621;-51
2023/08/14 05:24:21;;;;;;;10.40;7.60;;;;;;;21.48;55.10;101166.14;105000;1259;59690;-52
2023/08/14 05:26:49;;;;;;;10.40;7.90;;;;;;;21.55;54.88;101167.19;109160;1253;64189;-53
2023/08/14 05:29:16;;;;;;;9.40;7.30;;;;;;;21.62;54.89;101164.39;109039;1253;60118;-52
2023/08/14 05:31:44;;;;;;;10.20;7.20;;;;;;;21.73;54.75;101165.20;109001;1253;63728;-50
2023/08/14 05:34:11;;;;;;;10.00;6.70;;;;;;;21.87;54.74;101163.14;104907;1253;59785;-49
2023/08/14 05:36:39;;;;;;;10.80;6.80;;;;;;;21.98;54.78;101167.67;105057;1253;59992;-51
2023/08/14 05:39:08;;;;;;;9.10;7.20;;;;;;;22.10;54.56;101171.54;105102;1253;64056;-50
2023/08/14 05:41:36;;;;;;;11.10;7.90;;;;;;;22.20;54.00;101169.45;105662;1258;60161;-50
2023/08/14 05:44:05;;;;;;;11.80;7.30;;;;;;;22.30;53.55;101167.58;105178;1259;64376;-49
2023/08/14 05:46:33;;;;;;;12.60;7.60;;;;;;;22.39;53.57;101170.83;105178;1258;59608;-50
2023/08/14 05:49:00;;;;;;;9.90;7.20;;;;;;;22.46;53.65;101172.30;105071;1258;59746;-48
2023/08/14 05:51:28;;;;;;;9.80;7.20;;;;;;;22.53;53.54;101171.13;105103;1258;64569;-49
2023/08/14 05:53:56;;;;;;;9.50;6.90;;;;;;;22.59;53.48;101168.87;105167;1253;61342;-55
2023/08/14 05:56:23;;;;;;;10.90;7.00;;;;;;;22.70;53.40;101172.04;105192;1253;62522;-53
2023/08/14 05:58:51;;;;;;;9.00;6.70;;;;;;;22.83;53.35;101171.94;105140;1257;59807;-55
2023/08/14 06:01:18;;;;;;;8.70;5.90;;;;;;;22.94;53.29;101175.73;105124;1258;59657;-56
2023/08/14 06:03:46;;;;;;;7.90;6.20;;;;;;;23.04;52.63;101180.26;105127;1253;72140;-55
2023/08/14 06:06:14;;;;;;;10.40;6.90;;;;;;;23.14;52.51;101182.69;105285;1258;60272;-54
2023/08/14 06:08:41;;;;;;;8.50;6.50;;;;;;;23.24;52.43;101183.10;105007;1253;63683;-55
2023/08/14 06:11:09;;;;;;;8.00;6.60;;;;;;;23.34;52.47;101184.58;105174;1257;59733;-56
2023/08/14 06:13:36;;;;;;;10.60;6.40;;;;;;;23.42;52.45;101187.16;105318;1253;59919;-54
2023/08/14 06:16:04;;;;;;;11.00;6.60;;;;;;;23.48;52.52;101189.07;105241;1253;64057;-55
2023/08/14 06:18:32;;;;;;;10.00;6.30;;;;;;;23.54;51.91;101183.64;104968;1253;64173;-55
2023/08/14 06:20:59;;;;;;;12.20;7.00;;;;;;;23.62;51.94;101182.90;105271;1253;63759;-53
2023/08/14 06:23:27;;;;;;;10.40;7.10;;;;;;;23.70;52.81;101182.81;104836;1256;59749;-54
2023/08/14 06:25:54;;;;;;;10.60;7.10;;;;;;;23.80;53.60;101187.82;105060;1253;59671;-52
2023/08/14 06:28:22;;;;;;;9.80;7.70;;;;;;;23.92;53.97;101191.23;105037;1253;64135;-53
2023/08/14 06:30:49;;;;;;;10.00;7.90;;;;;;;24.04;53.97;101190.13;104978;1253;61363;-56
2023/08/14 06:33:25;;;;;;;;;;;;;;;24.14;54.10;101193.91;104959;1256;63875;-58
2023/08/14 06:35:54;;;;;;;10.70;6.30;;;;;;;24.22;54.29;101190.88;105091;1258;59696;-58
2023/08/14 06:38:21;;;;;;;7.80;6.50;;;;;;;24.29;54.19;101191.04;105983;1253;59596;-56
2023/08/14 06:40:49;;;;;;;11.50;6.70;;;;;;;24.36;53.87;101187.56;104988;1253;64114;-59
2023/08/14 06:43:16;;;;;;;9.30;6.90;;;;;;;24.41;53.73;101185.05;105161;1253;61806;-56
2023/08/14 06:45:45;;;;;;;10.70;6.80;;;;;;;24.46;53.80;101188.05;105081;1256;63773;-57
2023/08/14 06:48:14;;;;;;;8.90;6.90;;;;;;;24.52;53.83;101192.09;105310;1259;59659;-57
2023/08/14 06:50:41;;;;;;;8.30;6.60;;;;;;;24.60;53.80;101191.44;105226;1256;59722;-58
2023/08/14 06:53:09;;;;;;;9.10;6.50;;;;;;;24.69;53.92;101190.29;105377;1259;64404;-58
2023/08/14 06:55:37;;;;;;;10.90;6.90;;;;;;;24.75;53.74;101189.45;106011;1258;61322;-60
2023/08/14 06:58:04;;;;;;;11.50;6.30;;;;;;;24.81;53.49;101192.56;104894;1253;64289;-58
2023/08/14 07:00:32;;;;;;;7.80;6.20;;;;;;;24.89;53.18;101196.96;104995;1253;60556;-57
2023/08/14 07:02:59;;;;;;;10.90;6.70;;;;;;;24.95;52.34;101198.45;105531;1259;60480;-56
2023/08/14 07:05:27;;;;;;;8.30;6.30;;;;;;;24.99;51.45;101199.01;105182;1253;65014;-56
2023/08/14 07:07:55;;;;;;;8.80;6.20;;;;;;;25.00;51.22;101202.98;105274;1260;62179;-57
2023/08/14 07:10:23;;;;;;;11.70;7.40;;;;;;;25.03;51.35;101208.27;105156;1257;63802;-56
2023/08/14 07:12:50;;;;;;;8.70;6.80;;;;;;;25.06;51.19;101204.35;105076;1258;60557;-56
2023/08/14 07:15:18;;;;;;;10.60;7.70;;;;;;;25.09;51.08;101205.35;105312;1256;60738;-54
2023/08/14 07:17:46;;;;;;;11.90;7.60;;;;;;;25.13;51.25;101205.04;105250;1253;64942;-57
2023/08/14 07:20:13;;;;;;;10.20;6.70;;;;;;;25.18;51.64;101201.96;105151;1259;60499;-55
2023/08/14 07:22:41;;;;;;;7.80;6.00;;;;;;;25.30;51.79;101204.82;105071;1256;64287;-58
2023/08/14 07:25:08;;;;;;;8.40;6.20;;;;;;;25.44;51.42;101206.99;105068;1255;60562;-59
2023/08/14 07:27:36;;;;;;;11.10;5.50;;;;;;;25.54;51.33;101205.91;105147;1254;60318;-59
2023/08/14 07:30:05;;;;;;;8.30;6.20;;;;;;;25.63;51.47;101205.66;105129;1253;67997;-57
2023/08/14 07:32:32;;;;;;;9.30;6.80;;;;;;;25.71;50.75;101207.83;106516;1259;60493;-58
2023/08/14 07:35:00;;;;;;;8.40;6.40;;;;;;;25.78;49.94;101205.48;105356;1253;62523;-60
2023/08/14 07:37:28;;;;;;;9.60;7.40;;;;;;;25.85;50.48;101205.55;105258;1256;60579;-58
2023/08/14 07:39:55;;;;;;;9.30;7.10;;;;;;;25.91;50.66;101210.13;109296;1253;58296;-59
2023/08/14 07:42:23;;;;;;;10.70;8.10;;;;;;;25.98;50.43;101207.30;108591;1257;65073;-59
2023/08/14 07:44:51;;;;;;;9.70;5.30;;;;;;;26.05;50.29;101208.27;105054;1253;61557;-59
2023/08/14 07:47:19;;;;;;;10.80;7.50;;;;;;;26.11;49.71;101207.58;105328;1258;63731;-57
2023/08/14 07:49:47;;;;;;;8.30;5.40;;;;;;;26.19;49.24;101206.97;105258;1257;60535;-59
2023/08/14 07:52:14;;;;;;;10.00;7.00;;;;;;;26.25;48.71;101204.27;105273;1258;60445;-58
2023/08/14 07:54:43;;;;;;;12.70;5.80;;;;;;;26.33;48.36;101202.70;105377;1253;64863;-58
2023/08/14 07:57:10;;;;;;;10.40;8.00;;;;;;;26.42;48.03;101205.47;105491;1257;61289;-58
2023/08/14 07:59:38;;;;;;;7.10;5.60;;;;;;;26.52;48.09;101207.70;105345;1253;63995;-60
2023/08/14 08:02:05;;;;;;;8.20;5.30;;;;;;;26.60;47.96;101207.05;105377;1257;60527;-57
2023/08/14 08:04:36;;;;;;;8.50;4.90;;;;;;;26.62;47.38;101205.52;105523;1254;59576;-59
2023/08/14 08:07:07;;;;;;;8.00;5.90;;;;;;;26.65;46.54;101206.33;105554;1255;63640;-59
2023/08/14 08:09:37;;;;;;;7.00;4.50;;;;;;;26.71;46.58;101206.86;105325;1253;61257;-59
2023/08/14 08:12:06;;;;;;;6.80;5.20;;;;;;;26.75;46.58;101205.69;105332;1253;63683;-60
2023/08/14 08:14:34;;;;;;;6.80;5.00;;;;;;;26.79;46.66;101204.43;105369;1253;60489;-59
2023/08/14 08:17:02;;;;;;;10.10;7.80;;;;;;;26.82;46.41;101205.21;107199;1257;60822;-60
2023/08/14 08:19:29;;;;;;;11.30;7.90;;;;;;;26.87;46.26;101206.08;105262;1258;65000;-57
2023/08/14 08:21:57;;;;;;;9.00;6.50;;;;;;;26.90;46.53;101204.16;105494;1253;61481;-57
2023/08/14 08:24:25;;;;;;;7.30;5.40;;;;;;;26.97;45.68;101203.06;105308;1258;62519;-58
2023/08/14 08:26:53;;;;;;;10.30;6.40;;;;;;;27.05;45.68;101198.92;105357;1253;60608;-58
2023/08/14 08:29:20;;;;;;;7.10;4.70;;;;;;;27.13;45.58;101199.10;105254;1259;60563;-58
2023/08/14 08:31:48;;;;;;;11.10;8.20;;;;;;;27.17;45.70;101198.31;105485;1259;64884;-59
2023/08/14 08:34:15;;;;;;;11.30;8.90;;;;;;;27.23;45.52;101193.34;105374;1254;61494;-59
2023/08/14 08:36:43;;;;;;;9.30;7.00;;;;;;;27.32;45.54;101191.41;105446;1257;62453;-65
2023/08/14 08:39:10;;;;;;;10.70;5.70;;;;;;;27.41;45.53;101191.34;105369;1253;60542;-59
2023/08/14 08:41:39;;;;;;;7.60;5.60;;;;;;;27.50;45.52;101191.55;105425;1257;60555;-59
2023/08/14 08:44:12;;;;;;;8.10;5.10;;;;;;;27.60;45.62;101195.95;105769;1258;64937;-58
2023/08/14 08:46:48;;;;;;;6.90;4.30;;;;;;;27.70;45.57;101191.04;105342;1258;61397;-60
2023/08/14 08:49:15;;;;;;;11.10;4.70;;;;;;;27.77;45.57;101192.73;105456;1256;63813;-58
2023/08/14 08:51:43;;;;;;;7.00;5.00;;;;;;;27.81;45.38;101194.79;105260;1257;61694;-60
2023/08/14 08:54:12;;;;;;;6.40;4.40;;;;;;;27.83;44.30;101189.81;105102;1253;60419;-58
2023/08/14 08:56:40;;;;;;;6.80;4.80;;;;;;;27.84;44.04;101191.94;107122;1258;65428;-60
2023/08/14 08:59:08;;;;;;;7.50;4.70;;;;;;;27.85;43.47;101196.02;105091;1259;60453;-58
2023/08/14 09:01:36;;;;;;;7.30;4.30;;;;;;;27.89;43.15;101193.44;105178;1255;63699;-63
2023/08/14 09:04:04;;;;;;;8.60;5.10;;;;;;;27.94;43.25;101192.93;105342;1253;60537;-59
2023/08/14 09:06:32;;;;;;;8.20;6.00;;;;;;;27.98;43.22;101196.95;105516;1257;60673;-59
2023/08/14 09:08:59;;;;;;;7.90;4.20;;;;;;;28.01;43.03;101196.52;105306;1258;64858;-59
2023/08/14 09:11:28;;;;;;;7.20;4.00;;;;;;;28.05;43.24;101194.02;105338;1259;61381;-59
2023/08/14 09:13:55;;;;;;;8.20;5.50;;;;;;;28.08;43.06;101194.25;105202;1259;64137;-58
2023/08/14 09:16:24;;;;;;;6.60;4.70;;;;;;;28.12;42.38;101192.64;105292;1253;60605;-59
2023/08/14 09:18:51;;;;;;;7.70;5.80;;;;;;;28.15;42.26;101191.42;105475;1255;60554;-59
2023/08/14 09:21:19;;;;;;;6.80;3.90;;;;;;;28.20;42.16;101189.46;105348;1259;65025;-58
2023/08/14 09:23:46;;;;;;;9.30;5.80;;;;;;;28.26;41.60;101188.83;105248;1258;61457;-57
2023/08/14 09:26:14;;;;;;;7.90;4.70;;;;;;;28.31;41.32;101191.61;105341;1259;64995;-58
2023/08/14 09:28:42;;;;;;;6.50;4.30;;;;;;;28.38;41.04;101186.27;105231;1257;60746;-59
2023/08/14 09:31:11;;;;;;;6.40;4.50;;;;;;;28.40;40.80;101189.66;105626;1257;62284;-59
2023/08/14 09:33:43;;;;;;;10.20;7.00;;;;;;;28.43;41.33;101188.56;105462;1254;63849;-58
2023/08/14 09:36:13;;;;;;;9.60;6.50;;;;;;;28.49;41.94;101185.25;105719;1254;61526;-59
2023/08/14 09:38:43;;;;;;;7.90;4.70;;;;;;;28.60;41.38;101187.55;105559;1257;63833;-59
2023/08/14 09:41:11;;;;;;;8.00;5.10;;;;;;;28.70;41.14;101183.59;105311;1259;60543;-58
2023/08/14 09:43:38;;;;;;;7.60;4.10;;;;;;;28.79;41.14;101183.15;105468;1258;60367;-59
2023/08/14 09:46:06;;;;;;;10.10;7.40;;;;;;;28.90;40.15;101178.92;105213;1253;65090;-58
2023/08/14 09:48:45;;;;;;;8.70;6.30;;;;;;;29.00;39.54;101183.00;105224;1261;61375;-57
2023/08/14 09:51:14;;;;;;;10.60;7.50;;;;;;;29.12;39.22;101180.91;107939;1256;62570;-60
2023/08/14 09:53:49;;;;;;;6.50;4.20;;;;;;;29.23;39.21;101182.46;105467;1256;61693;-58
2023/08/14 09:56:17;;;;;;;;;;;;;;;29.34;39.31;101179.41;105430;1252;60394;-57
2023/08/14 09:58:48;;;;;;;7.20;4.30;;;;;;;29.43;39.49;101178.34;105983;1253;64935;-57
2023/08/14 10:01:17;;;;;;;8.30;4.90;;;;;;;29.51;39.46;101175.19;105533;1258;63318;-60
2023/08/14 10:03:51;;;;;;;6.20;3.60;;;;;;;29.58;38.83;101174.41;109082;1253;63685;-61
2023/08/14 10:06:18;;;;;;;8.10;4.70;;;;;;;29.67;38.33;101172.09;105915;1255;60434;-60
2023/08/14 10:08:46;;;;;;;8.40;4.50;;;;;;;29.72;38.37;101170.17;105013;1254;60589;-60
2023/08/14 10:11:16;;;;;;;7.80;5.30;;;;;;;29.79;38.40;101171.56;106742;1258;64916;-61
2023/08/14 10:13:48;;;;;;;5.20;3.30;;;;;;;29.85;38.40;101170.09;109302;1252;60299;-62
2023/08/14 10:16:23;;;;;;;7.00;3.20;;;;;;;29.92;37.62;101168.52;109078;1253;63708;-59
2023/08/14 10:18:55;;;;;;;7.30;3.60;;;;;;;29.96;36.95;101170.05;109293;1253;58474;-61
2023/08/14 10:21:25;;;;;;;9.50;5.90;;;;;;;29.98;36.16;101166.91;109317;1252;58349;-62
2023/08/14 10:23:53;;;;;;;6.50;3.20;;;;;;;30.03;36.71;101167.13;109248;1253;63691;-60
2023/08/14 10:26:21;;;;;;;5.40;3.70;;;;;;;30.09;36.79;101166.84;109066;1260;61385;-58
2023/08/14 10:28:48;;;;;;;6.90;3.80;;;;;;;30.14;37.00;101167.08;108531;1258;64399;-59
2023/08/14 10:31:16;;;;;;;6.30;3.30;;;;;;;30.21;37.25;101164.67;105244;1260;60430;-58
2023/08/14 10:33:44;;;;;;;5.40;3.80;;;;;;;30.24;37.52;101162.48;105897;1259;60450;-58
2023/08/14 10:36:19;;;;;;;7.20;4.70;;;;;;;30.29;37.91;101164.36;105497;1257;64905;-59
2023/08/14 10:38:48;;;;;;;9.30;4.50;;;;;;;30.34;37.37;101166.59;105498;1259;61410;-58
2023/08/14 10:41:32;;;;;;;6.20;4.00;;;;;;;30.41;37.19;101169.48;105338;1257;63673;-59
2023/08/14 10:44:05;;;;;;;6.20;4.00;;;;;;;30.49;37.36;101163.14;105537;1260;60559;-59
2023/08/14 10:46:42;;;;;;;5.70;3.40;;;;;;;30.57;37.83;101162.82;105600;1259;61094;-59
2023/08/14 10:49:13;;;;;;;7.10;5.40;;;;;;;30.63;37.58;101162.35;105358;1254;64901;-60
2023/08/14 10:51:42;;;;;;;6.10;4.10;;;;;;;30.69;37.61;101165.00;105463;1259;60680;-60
2023/08/14 10:54:11;;;;;;;6.20;4.10;;;;;;;30.74;37.54;101161.53;105628;1259;63679;-58
2023/08/14 10:56:43;;;;;;;7.60;3.70;;;;;;;30.77;37.07;101161.85;105556;1254;60546;-58
2023/08/14 10:59:26;;;;;;;5.90;3.70;;;;;;;30.81;36.98;101160.80;105546;1257;60364;-60
2023/08/14 11:02:09;;;;;;;5.60;3.50;;;;;;;30.86;36.43;101161.66;105380;1255;63638;-63
2023/08/14 11:04:58;;;;;;;5.60;3.50;;;;;;;30.90;36.43;101158.91;105256;1257;60621;-62
2023/08/14 11:07:30;;;;;;;6.30;3.30;;;;;;;30.90;35.94;101156.37;105448;1257;63736;-61
2023/08/14 11:09:58;;;;;;;7.60;3.80;;;;;;;30.90;35.92;101155.19;105532;1253;60501;-61
2023/08/14 11:12:34;;;;;;;7.10;3.70;;;;;;;30.93;36.38;101152.05;105423;1252;60356;-59
2023/08/14 11:15:01;;;;;;;5.80;3.40;;;;;;;30.95;36.32;101150.41;105201;1257;65002;-58
2023/08/14 11:17:29;;;;;;;6.30;3.20;;;;;;;30.96;36.29;101150.10;105378;1257;60562;-60
2023/08/14 11:19:57;;;;;;;7.50;3.50;;;;;;;30.99;36.18;101145.06;104966;1259;62449;-62
2023/08/14 11:22:25;;;;;;;5.40;2.90;;;;;;;31.01;36.55;101144.52;105205;1260;60532;-61
2023/08/14 11:24:52;;;;;;;6.00;3.30;;;;;;;31.04;36.54;101140.77;105002;1257;60629;-62